createdAt,value
2023-10-05T00:02:10.398Z,7.70
2023-10-05T00:04:42.663Z,7.70
2023-10-05T00:07:19.610Z,7.70
2023-10-05T00:09:47.420Z,7.70
2023-10-05T00:12:21.621Z,7.70
2023-10-05T00:14:56.648Z,7.70
2023-10-05T00:17:24.363Z,7.60
2023-10-05T00:19:51.299Z,7.60
2023-10-05T00:22:18.648Z,7.60
2023-10-05T00:24:47.948Z,7.60
2023-10-05T00:27:16.227Z,7.60
2023-10-05T00:29:44.674Z,7.60
2023-10-05T00:32:26.236Z,7.50
2023-10-05T00:35:16.566Z,7.50
2023-10-05T00:37:47.569Z,7.50
2023-10-05T00:40:49.918Z,7.40
2023-10-05T00:43:26.498Z,7.50
2023-10-05T00:45:56.541Z,7.50
2023-10-05T00:48:29.371Z,7.50
2023-10-05T00:51:05.880Z,7.50
2023-10-05T00:53:33.587Z,7.50
2023-10-05T00:56:13.882Z,7.50
2023-10-05T00:58:56.110Z,7.50
2023-10-05T01:01:35.303Z,7.50
2023-10-05T01:04:11.955Z,7.50
2023-10-05T01:06:42.767Z,7.50
2023-10-05T01:09:24.521Z,7.50
2023-10-05T01:11:55.908Z,7.50
2023-10-05T01:14:28.818Z,7.50
2023-10-05T01:16:56.247Z,7.60
2023-10-05T01:19:23.104Z,7.60
2023-10-05T01:21:52.929Z,7.60
2023-10-05T01:24:25.039Z,7.70
2023-10-05T01:26:52.008Z,7.70
2023-10-05T01:29:18.811Z,7.70
2023-10-05T01:31:50.255Z,7.80
2023-10-05T01:34:20.600Z,7.80
2023-10-05T01:36:47.800Z,7.70
2023-10-05T01:39:20.240Z,7.80
2023-10-05T01:41:49.351Z,7.90
2023-10-05T01:44:16.616Z,7.90
2023-10-05T01:46:43.781Z,7.80
2023-10-05T01:49:11.124Z,7.60
2023-10-05T01:51:41.065Z,7.60
2023-10-05T01:54:13.140Z,7.50
2023-10-05T01:56:40.985Z,7.40
2023-10-05T01:59:08.735Z,7.60
2023-10-05T02:01:41.489Z,7.60
2023-10-05T02:04:09.098Z,7.60
2023-10-05T02:06:47.143Z,7.60
2023-10-05T02:09:15.496Z,7.60
2023-10-05T02:11:43.330Z,7.70
2023-10-05T02:14:13.707Z,7.80
2023-10-05T02:16:41.013Z,7.70
2023-10-05T02:19:09.383Z,7.90
2023-10-05T02:21:41.792Z,7.90
2023-10-05T02:24:19.105Z,8.00
2023-10-05T02:27:00.124Z,8.10
2023-10-05T02:29:28.524Z,8.00
2023-10-05T02:32:06.707Z,7.90
2023-10-05T02:34:56.025Z,7.90
2023-10-05T02:37:23.763Z,7.80
2023-10-05T02:39:50.938Z,7.70
2023-10-05T02:42:22.494Z,7.60
2023-10-05T02:44:51.235Z,7.50
2023-10-05T02:47:24.433Z,7.40
2023-10-05T02:49:51.461Z,7.40
2023-10-05T02:52:18.602Z,7.40
2023-10-05T02:54:46.249Z,7.40
2023-10-05T02:57:17.708Z,7.30
2023-10-05T02:59:47.786Z,7.30
2023-10-05T03:02:18.478Z,7.20
2023-10-05T03:04:46.445Z,7.20
2023-10-05T03:07:17.956Z,7.20
2023-10-05T03:09:47.475Z,7.20
2023-10-05T03:12:15.050Z,7.30
2023-10-05T03:14:44.562Z,7.30
2023-10-05T03:17:19.675Z,7.40
2023-10-05T03:19:46.815Z,7.50
2023-10-05T03:22:14.045Z,7.70
2023-10-05T03:24:46.017Z,7.80
2023-10-05T03:27:13.256Z,7.90
2023-10-05T03:29:40.535Z,7.90
2023-10-05T03:32:10.226Z,8.00
2023-10-05T03:34:40.656Z,8.10
2023-10-05T03:37:16.917Z,8.10
2023-10-05T03:39:53.063Z,8.00
2023-10-05T03:42:23.655Z,8.10
2023-10-05T03:45:04.975Z,8.10
2023-10-05T03:47:32.692Z,8.20
2023-10-05T03:49:59.675Z,8.30
2023-10-05T03:52:31.557Z,8.30
2023-10-05T03:55:03.629Z,8.30
2023-10-05T03:57:36.436Z,8.10
2023-10-05T04:00:18.097Z,8.00
2023-10-05T04:02:45.683Z,7.80
2023-10-05T04:05:13.266Z,7.70
2023-10-05T04:07:42.737Z,7.70
2023-10-05T04:10:15.867Z,7.60
2023-10-05T04:12:43.525Z,7.50
2023-10-05T04:15:15.510Z,7.30
2023-10-05T04:17:45.086Z,7.30
2023-10-05T04:20:19.002Z,7.30
2023-10-05T04:22:49.175Z,7.20
2023-10-05T04:25:17.894Z,7.20
2023-10-05T04:27:48.770Z,7.10
2023-10-05T04:30:23.313Z,7.20
2023-10-05T04:32:50.591Z,7.10
2023-10-05T04:35:25.573Z,7.10
2023-10-05T04:37:52.533Z,7.10
2023-10-05T04:40:23.168Z,7.10
2023-10-05T04:42:51.475Z,7.20
2023-10-05T04:45:21.823Z,7.20
2023-10-05T04:47:50.167Z,7.30
2023-10-05T04:50:18.510Z,7.40
2023-10-05T04:52:52.415Z,7.50
2023-10-05T04:55:24.164Z,7.40
2023-10-05T04:57:51.694Z,7.40
2023-10-05T05:00:37.132Z,7.40
2023-10-05T05:03:18.467Z,7.50
2023-10-05T05:05:58.802Z,7.40
2023-10-05T05:08:25.710Z,7.40
2023-10-05T05:10:52.561Z,7.40
2023-10-05T05:13:22.078Z,7.40
2023-10-05T05:15:49.114Z,7.50
2023-10-05T05:18:16.942Z,7.50
2023-10-05T05:20:45.551Z,7.60
2023-10-05T05:23:14.709Z,7.80
2023-10-05T05:25:41.706Z,8.00
2023-10-05T05:28:10.350Z,8.20
2023-10-05T05:30:41.986Z,8.30
2023-10-05T05:33:11.603Z,8.40
2023-10-05T05:35:41.042Z,8.40
2023-10-05T05:38:11.462Z,8.50
2023-10-05T05:40:39.802Z,8.50
2023-10-05T05:43:10.682Z,8.60
2023-10-05T05:45:40.703Z,8.60
2023-10-05T05:48:10.566Z,8.60
2023-10-05T05:50:40.678Z,8.70
2023-10-05T05:53:15.145Z,8.70
2023-10-05T05:55:45.545Z,8.70
2023-10-05T05:58:18.096Z,8.70
2023-10-05T06:00:47.725Z,8.80
2023-10-05T06:03:18.438Z,8.80
2023-10-05T06:05:45.548Z,8.80
2023-10-05T06:08:13.312Z,8.90
2023-10-05T06:10:40.730Z,8.90
2023-10-05T06:13:07.622Z,8.90
2023-10-05T06:15:36.288Z,8.90
2023-10-05T06:18:04.394Z,9.00
2023-10-05T06:20:33.114Z,9.00
2023-10-05T06:23:01.831Z,8.90
2023-10-05T06:25:29.322Z,9.00
2023-10-05T06:27:56.545Z,9.00
2023-10-05T06:30:23.457Z,8.90
2023-10-05T06:32:50.453Z,8.90
2023-10-05T06:35:19.289Z,8.90
2023-10-05T06:37:46.555Z,8.90
2023-10-05T06:40:15.006Z,9.00
2023-10-05T06:42:43.842Z,9.10
2023-10-05T06:45:25.016Z,9.20
2023-10-05T06:47:54.754Z,9.30
2023-10-05T06:50:22.483Z,9.30
2023-10-05T06:52:50.301Z,9.30
2023-10-05T06:55:19.120Z,9.40
2023-10-05T06:57:48.086Z,9.50
2023-10-05T07:00:21.707Z,9.40
2023-10-05T07:02:50.273Z,9.40
2023-10-05T07:05:18.353Z,9.40
2023-10-05T07:07:45.446Z,9.50
2023-10-05T07:10:15.594Z,9.50
2023-10-05T07:12:47.496Z,9.60
2023-10-05T07:15:22.073Z,9.70
2023-10-05T07:17:52.575Z,9.80
2023-10-05T07:20:22.419Z,9.90
2023-10-05T07:22:50.077Z,9.90
2023-10-05T07:25:18.685Z,10.10
2023-10-05T07:27:47.146Z,10.10
2023-10-05T07:30:14.358Z,10.20
2023-10-05T07:32:41.995Z,10.30
2023-10-05T07:35:11.587Z,10.40
2023-10-05T07:37:38.523Z,10.60
2023-10-05T07:40:09.115Z,10.70
2023-10-05T07:42:36.302Z,11.00
2023-10-05T07:45:05.704Z,11.20
2023-10-05T07:47:32.528Z,11.60
2023-10-05T07:50:04.027Z,11.90
2023-10-05T07:52:31.992Z,12.00
2023-10-05T07:54:59.263Z,12.20
2023-10-05T07:57:26.131Z,12.00
2023-10-05T07:59:53.021Z,11.90
2023-10-05T08:02:20.329Z,11.60
2023-10-05T08:04:49.175Z,11.40
2023-10-05T08:07:16.731Z,11.30
2023-10-05T08:09:44.015Z,11.40
2023-10-05T08:12:14.310Z,11.60
2023-10-05T08:14:41.410Z,11.90
2023-10-05T08:17:08.234Z,12.10
2023-10-05T08:19:35.134Z,12.30
2023-10-05T08:22:02.125Z,12.40
2023-10-05T08:24:34.820Z,12.60
2023-10-05T08:27:02.204Z,12.80
2023-10-05T08:29:29.422Z,12.80
2023-10-05T08:31:56.385Z,13.20
2023-10-05T08:34:23.371Z,13.50
2023-10-05T08:36:54.422Z,14.20
2023-10-05T08:39:27.026Z,14.90
2023-10-05T08:42:07.298Z,15.70
2023-10-05T08:44:43.176Z,16.30
2023-10-05T08:47:14.938Z,16.20
2023-10-05T08:49:45.293Z,16.10
2023-10-05T08:52:21.850Z,16.00
2023-10-05T08:54:49.102Z,16.20
2023-10-05T08:57:18.246Z,16.50
2023-10-05T08:59:50.050Z,16.40
2023-10-05T09:02:23.053Z,16.60
2023-10-05T09:04:59.353Z,16.50
2023-10-05T09:07:39.199Z,16.20
2023-10-05T09:10:09.706Z,16.10
2023-10-05T09:12:38.967Z,16.60
2023-10-05T09:15:14.114Z,17.10
2023-10-05T09:18:00.173Z,17.40
2023-10-05T09:20:33.071Z,17.10
2023-10-05T09:23:05.646Z,17.00
2023-10-05T09:25:41.823Z,16.40
2023-10-05T09:28:18.586Z,16.20
2023-10-05T09:30:57.233Z,15.90
2023-10-05T09:33:29.092Z,15.50
2023-10-05T09:36:03.273Z,15.30
2023-10-05T09:38:31.591Z,15.20
2023-10-05T09:40:59.665Z,15.30
2023-10-05T09:43:29.221Z,15.10
2023-10-05T09:45:58.164Z,15.20
2023-10-05T09:48:25.935Z,15.40
2023-10-05T09:50:54.066Z,15.60
2023-10-05T09:53:21.510Z,15.80
2023-10-05T09:55:55.013Z,15.80
2023-10-05T09:58:22.532Z,15.70
2023-10-05T10:00:50.550Z,15.90
2023-10-05T10:03:18.470Z,16.00
2023-10-05T10:05:53.361Z,16.10
2023-10-05T10:08:30.942Z,16.20
2023-10-05T10:11:07.903Z,16.20
2023-10-05T10:13:38.890Z,16.00
2023-10-05T10:16:28.265Z,16.10
2023-10-05T10:19:28.035Z,16.10
2023-10-05T10:22:02.072Z,16.20
2023-10-05T10:24:31.509Z,16.10
2023-10-05T10:30:01.036Z,16.00
2023-10-05T10:31:00.268Z,16.00
2023-10-05T10:32:35.721Z,16.00
2023-10-05T10:35:27.754Z,15.90
2023-10-05T10:38:00.550Z,16.20
2023-10-05T10:40:31.643Z,16.60
2023-10-05T10:43:05.522Z,16.40
2023-10-05T10:45:42.844Z,16.00
2023-10-05T10:48:15.228Z,15.60
2023-10-05T10:50:42.226Z,15.60
2023-10-05T10:53:21.945Z,15.60
2023-10-05T10:56:21.492Z,15.70
2023-10-05T10:58:58.210Z,15.60
2023-10-05T11:01:42.317Z,15.40
2023-10-05T11:04:32.966Z,15.30
2023-10-05T11:07:06.952Z,15.20
2023-10-05T11:09:39.057Z,15.30
2023-10-05T11:12:14.259Z,15.40
2023-10-05T11:14:46.014Z,15.60
2023-10-05T11:17:37.692Z,15.70
2023-10-05T11:20:18.463Z,15.70
2023-10-05T11:22:47.652Z,15.90
2023-10-05T11:25:18.116Z,15.90
2023-10-05T11:27:48.780Z,16.10
2023-10-05T11:30:26.875Z,16.10
2023-10-05T11:33:42.939Z,16.50
2023-10-05T11:35:59.334Z,16.50
2023-10-05T11:38:28.287Z,16.40
2023-10-05T11:40:57.231Z,16.20
2023-10-05T11:43:27.148Z,16.30
2023-10-05T11:45:57.451Z,16.40
2023-10-05T11:48:43.819Z,16.40
2023-10-05T11:51:12.711Z,16.50
2023-10-05T11:53:41.211Z,16.20
2023-10-05T11:56:08.093Z,15.90
2023-10-05T11:58:39.224Z,15.70
2023-10-05T12:01:07.282Z,15.60
2023-10-05T12:03:35.154Z,15.60
2023-10-05T12:06:02.333Z,15.40
2023-10-05T12:08:32.254Z,15.30
2023-10-05T12:11:02.035Z,15.20
2023-10-05T12:13:28.951Z,15.30
2023-10-05T12:15:56.799Z,15.30
2023-10-05T12:18:24.060Z,15.40
2023-10-05T12:20:51.001Z,15.70
2023-10-05T12:23:19.006Z,15.90
2023-10-05T12:25:46.804Z,16.00
2023-10-05T12:28:22.920Z,16.00
2023-10-05T12:30:50.854Z,16.10
2023-10-05T12:33:20.638Z,16.10
2023-10-05T12:35:54.716Z,15.90
2023-10-05T12:38:23.738Z,16.00
2023-10-05T12:40:50.781Z,16.10
2023-10-05T12:43:18.901Z,16.20
2023-10-05T12:45:46.774Z,16.20
2023-10-05T12:48:14.365Z,16.10
2023-10-05T12:50:42.573Z,16.10
2023-10-05T12:53:09.732Z,16.20
2023-10-05T12:55:38.856Z,16.10
2023-10-05T12:58:10.001Z,16.20
2023-10-05T13:00:41.967Z,16.20
2023-10-05T13:03:12.206Z,16.30
2023-10-05T13:05:45.460Z,16.10
2023-10-05T13:08:13.436Z,16.00
2023-10-05T13:10:41.161Z,15.90
2023-10-05T13:13:11.681Z,15.90
2023-10-05T13:15:40.269Z,15.90
2023-10-05T13:18:20.036Z,15.60
2023-10-05T13:20:51.424Z,15.60
2023-10-05T13:23:28.389Z,15.70
2023-10-05T13:25:55.420Z,15.60
2023-10-05T13:28:25.765Z,15.50
2023-10-05T13:30:53.423Z,15.50
2023-10-05T13:33:24.624Z,15.50
2023-10-05T13:35:54.565Z,15.50
2023-10-05T13:38:28.776Z,15.50
2023-10-05T13:41:02.862Z,15.60
2023-10-05T13:43:33.833Z,15.60
2023-10-05T13:46:22.947Z,15.60
2023-10-05T13:48:55.249Z,15.70
2023-10-05T13:51:24.250Z,15.70
2023-10-05T13:53:58.241Z,15.70
2023-10-05T13:56:29.832Z,15.50
2023-10-05T13:59:04.518Z,15.60
2023-10-05T14:01:39.999Z,15.70
2023-10-05T14:04:09.554Z,15.70
2023-10-05T14:06:44.904Z,15.90
2023-10-05T14:09:13.073Z,15.90
2023-10-05T14:11:41.578Z,15.90
2023-10-05T14:14:12.383Z,16.00
2023-10-05T14:16:50.544Z,15.90
2023-10-05T14:19:19.235Z,15.90
2023-10-05T14:22:06.890Z,16.00
2023-10-05T14:24:35.233Z,16.10
2023-10-05T14:27:06.568Z,16.20
2023-10-05T14:29:36.849Z,16.30
2023-10-05T14:32:06.331Z,16.40
2023-10-05T14:34:34.039Z,16.70
2023-10-05T14:37:09.017Z,16.90
2023-10-05T14:39:38.270Z,17.10
2023-10-05T14:42:05.846Z,17.10
2023-10-05T14:44:36.877Z,16.80
2023-10-05T14:47:13.815Z,16.80
2023-10-05T14:49:42.258Z,16.80
2023-10-05T14:52:09.423Z,16.70
2023-10-05T14:54:37.277Z,16.70
2023-10-05T14:57:04.680Z,16.50
2023-10-05T14:59:31.915Z,16.20
2023-10-05T15:01:59.638Z,16.20
2023-10-05T15:04:26.708Z,16.40
2023-10-05T15:06:53.605Z,16.50
2023-10-05T15:09:22.463Z,16.30
2023-10-05T15:11:49.698Z,16.30
2023-10-05T15:14:16.701Z,16.40
2023-10-05T15:16:45.323Z,16.30
2023-10-05T15:19:12.796Z,16.20
2023-10-05T15:21:39.675Z,16.00
2023-10-05T15:24:12.325Z,16.10
2023-10-05T15:26:41.606Z,16.20
2023-10-05T15:29:12.145Z,16.30
2023-10-05T15:31:43.439Z,16.20
2023-10-05T15:34:10.392Z,16.10
2023-10-05T15:36:37.322Z,15.90
2023-10-05T15:39:04.914Z,15.80
2023-10-05T15:41:31.751Z,15.80
2023-10-05T15:43:58.828Z,15.90
2023-10-05T15:46:27.110Z,15.90
2023-10-05T15:48:54.431Z,15.80
2023-10-05T15:51:21.305Z,15.90
2023-10-05T15:53:58.719Z,16.00
2023-10-05T15:56:28.575Z,16.30
2023-10-05T15:58:56.186Z,16.80
2023-10-05T16:01:23.299Z,17.50
2023-10-05T16:03:50.667Z,18.10
2023-10-05T16:06:24.527Z,18.60
2023-10-05T16:08:54.362Z,18.80
2023-10-05T16:11:21.480Z,18.60
2023-10-05T16:13:50.549Z,18.80
2023-10-05T16:16:18.159Z,18.80
2023-10-05T16:18:45.126Z,18.40
2023-10-05T16:21:12.063Z,17.90
2023-10-05T16:23:39.013Z,17.50
2023-10-05T16:26:08.142Z,17.10
2023-10-05T16:28:35.669Z,16.60
2023-10-05T16:31:02.763Z,16.30
2023-10-05T16:33:31.905Z,16.00
2023-10-05T16:35:58.948Z,15.90
2023-10-05T16:38:27.029Z,15.80
2023-10-05T16:40:58.244Z,15.80
2023-10-05T16:43:27.168Z,15.60
2023-10-05T16:45:55.783Z,15.40
2023-10-05T16:48:22.899Z,15.10
2023-10-05T16:50:49.984Z,14.80
2023-10-05T16:53:17.241Z,14.80
2023-10-05T16:55:45.470Z,14.70
2023-10-05T16:58:12.679Z,14.50
2023-10-05T17:00:39.605Z,14.30
2023-10-05T17:03:08.384Z,14.10
2023-10-05T17:05:37.784Z,13.90
2023-10-05T17:08:05.815Z,13.80
2023-10-05T17:10:32.937Z,13.70
2023-10-05T17:13:01.007Z,13.60
2023-10-05T17:15:28.506Z,13.40
2023-10-05T17:17:56.016Z,13.20
2023-10-05T17:20:23.889Z,13.10
2023-10-05T17:22:51.610Z,13.00
2023-10-05T17:25:19.166Z,12.90
2023-10-05T17:27:46.331Z,12.90
2023-10-05T17:30:15.281Z,12.80
2023-10-05T17:33:02.454Z,12.80
2023-10-05T17:35:30.554Z,12.80
2023-10-05T17:37:57.994Z,12.70
2023-10-05T17:40:25.462Z,12.70
2023-10-05T17:42:52.671Z,12.60
2023-10-05T17:45:20.040Z,12.50
2023-10-05T17:47:47.667Z,12.40
2023-10-05T17:50:16.673Z,12.30
2023-10-05T17:52:47.342Z,12.30
2023-10-05T17:55:14.341Z,12.20
2023-10-05T17:57:41.561Z,12.20
2023-10-05T18:00:17.150Z,12.20
2023-10-05T18:02:44.970Z,12.20
2023-10-05T18:05:16.086Z,12.10
2023-10-05T18:07:43.302Z,12.10
2023-10-05T18:10:10.621Z,12.10
2023-10-05T18:12:39.226Z,12.00
2023-10-05T18:15:07.413Z,12.00
2023-10-05T18:17:35.475Z,12.00
2023-10-05T18:20:03.060Z,11.90
2023-10-05T18:22:31.246Z,11.80
2023-10-05T18:24:58.614Z,11.70
2023-10-05T18:27:25.586Z,11.70
2023-10-05T18:29:52.424Z,11.60
2023-10-05T18:32:20.634Z,11.50
2023-10-05T18:34:47.711Z,11.50
2023-10-05T18:37:15.586Z,11.50
2023-10-05T18:39:43.379Z,11.40
2023-10-05T18:42:10.291Z,11.30
2023-10-05T18:44:41.204Z,11.30
2023-10-05T18:47:11.144Z,11.30
2023-10-05T18:49:38.881Z,11.20
2023-10-05T18:52:06.708Z,11.10
2023-10-05T18:54:33.555Z,11.10
2023-10-05T18:57:00.603Z,11.00
2023-10-05T18:59:28.100Z,11.00
2023-10-05T19:01:59.802Z,11.00
2023-10-05T19:04:28.172Z,10.90
2023-10-05T19:06:56.729Z,10.80
2023-10-05T19:09:25.429Z,10.80
2023-10-05T19:11:53.314Z,10.70
2023-10-05T19:14:20.189Z,10.70
2023-10-05T19:16:47.301Z,10.70
2023-10-05T19:19:14.133Z,10.60
2023-10-05T19:21:41.025Z,10.60
2023-10-05T19:24:09.820Z,10.50
2023-10-05T19:26:37.222Z,10.50
2023-10-05T19:29:05.789Z,10.50
2023-10-05T19:31:34.015Z,10.50
2023-10-05T19:34:00.886Z,10.50
2023-10-05T19:36:27.909Z,10.50
2023-10-05T19:38:54.815Z,10.50
2023-10-05T19:41:21.625Z,10.40
2023-10-05T19:43:49.797Z,10.30
2023-10-05T19:46:16.773Z,10.30
2023-10-05T19:48:43.631Z,10.30
2023-10-05T19:51:12.709Z,10.30
2023-10-05T19:53:41.056Z,10.40
2023-10-05T19:56:18.970Z,10.20
2023-10-05T19:58:49.919Z,10.20
2023-10-05T20:01:17.388Z,10.10
2023-10-05T20:03:44.284Z,10.10
2023-10-05T20:06:11.326Z,10.00
2023-10-05T20:08:40.468Z,10.00
2023-10-05T20:11:11.617Z,10.20
2023-10-05T20:13:42.084Z,10.30
2023-10-05T20:16:15.342Z,10.30
2023-10-05T20:18:42.676Z,10.50
2023-10-05T20:21:10.875Z,10.60
2023-10-05T20:23:41.318Z,10.60
2023-10-05T20:26:08.971Z,10.60
2023-10-05T20:28:40.315Z,10.60
2023-10-05T20:31:13.693Z,10.60
2023-10-05T20:33:40.935Z,10.60
2023-10-05T20:36:08.721Z,10.50
2023-10-05T20:38:36.200Z,10.50
2023-10-05T20:41:07.819Z,10.30
2023-10-05T20:43:35.409Z,10.20
2023-10-05T20:46:07.424Z,10.00
2023-10-05T20:48:34.738Z,10.00
2023-10-05T20:51:02.491Z,9.90
2023-10-05T20:53:29.696Z,9.90
2023-10-05T20:55:57.063Z,10.00
2023-10-05T20:58:24.484Z,10.00
2023-10-05T21:00:54.111Z,10.00
2023-10-05T21:03:21.036Z,10.00
2023-10-05T21:05:47.992Z,10.00
2023-10-05T21:08:17.798Z,10.00
2023-10-05T21:10:48.333Z,10.00
2023-10-05T21:13:15.322Z,10.00
2023-10-05T21:15:42.707Z,10.10
2023-10-05T21:18:10.991Z,10.10
2023-10-05T21:20:38.092Z,10.10
2023-10-05T21:23:06.742Z,10.10
2023-10-05T21:25:35.325Z,10.00
2023-10-05T21:28:02.843Z,10.00
2023-10-05T21:30:29.951Z,10.00
2023-10-05T21:32:56.992Z,10.00
2023-10-05T21:35:23.932Z,10.10
2023-10-05T21:37:51.140Z,10.10
2023-10-05T21:40:18.160Z,10.10
2023-10-05T21:42:44.963Z,10.10
2023-10-05T21:45:16.932Z,10.10
2023-10-05T21:47:45.787Z,10.10
2023-10-05T21:50:14.635Z,10.00
2023-10-05T21:52:42.155Z,9.90
2023-10-05T21:55:09.817Z,9.80
2023-10-05T21:57:36.667Z,9.80
2023-10-05T22:00:11.092Z,9.80
2023-10-05T22:02:39.068Z,9.80
2023-10-05T22:05:07.051Z,9.80
2023-10-05T22:07:34.334Z,9.80
2023-10-05T22:10:01.296Z,9.70
2023-10-05T22:12:35.930Z,9.60
2023-10-05T22:15:03.231Z,9.50
2023-10-05T22:17:30.631Z,9.40
2023-10-05T22:19:57.642Z,9.40
2023-10-05T22:22:24.589Z,9.40
2023-10-05T22:24:52.093Z,9.40
2023-10-05T22:27:19.010Z,9.40
2023-10-05T22:29:46.858Z,9.30
2023-10-05T22:32:14.000Z,9.30
2023-10-05T22:34:40.786Z,9.30
2023-10-05T22:37:07.827Z,9.30
2023-10-05T22:39:35.102Z,9.30
2023-10-05T22:42:01.961Z,9.30
2023-10-05T22:44:29.119Z,9.40
2023-10-05T22:46:56.188Z,9.30
2023-10-05T22:49:23.480Z,9.20
2023-10-05T22:51:50.361Z,9.00
2023-10-05T22:54:17.364Z,8.90
2023-10-05T22:56:44.999Z,8.80
2023-10-05T22:59:12.338Z,8.80
2023-10-05T23:01:42.259Z,8.90
2023-10-05T23:04:13.093Z,9.00
2023-10-05T23:06:39.959Z,9.00
2023-10-05T23:09:10.459Z,9.00
2023-10-05T23:11:41.172Z,9.10
2023-10-05T23:14:11.354Z,9.00
2023-10-05T23:16:38.418Z,9.10
2023-10-05T23:19:11.629Z,9.00
2023-10-05T23:21:44.004Z,9.00
2023-10-05T23:24:12.675Z,9.00
2023-10-05T23:26:41.302Z,8.90
2023-10-05T23:29:10.300Z,8.90
2023-10-05T23:31:38.877Z,8.80
2023-10-05T23:34:14.121Z,8.70
2023-10-05T23:36:41.409Z,8.60
2023-10-05T23:39:11.517Z,8.50
2023-10-05T23:41:41.224Z,8.40
2023-10-05T23:44:11.472Z,8.40
2023-10-05T23:46:42.099Z,8.40
2023-10-05T23:49:12.891Z,8.50
2023-10-05T23:51:39.881Z,8.50
2023-10-05T23:54:07.139Z,8.40
2023-10-05T23:56:34.670Z,8.30
2023-10-05T23:59:06.404Z,8.30
